createdAt,value
2022-09-06T00:00:44.021Z,3.10
2022-09-06T00:01:43.995Z,3.40
2022-09-06T00:02:44.154Z,3.10
2022-09-06T00:03:44.050Z,3.10
2022-09-06T00:04:43.978Z,2.90
2022-09-06T00:05:43.971Z,3.10
2022-09-06T00:06:43.945Z,3.20
2022-09-06T00:07:43.920Z,3.10
2022-09-06T00:08:43.970Z,3.40
2022-09-06T00:09:43.929Z,3.00
2022-09-06T00:10:43.882Z,3.10
2022-09-06T00:11:43.868Z,3.30
2022-09-06T00:12:43.898Z,3.30
2022-09-06T00:13:43.868Z,3.30
2022-09-06T00:14:43.834Z,3.60
2022-09-06T00:15:43.882Z,3.80
2022-09-06T00:16:43.804Z,4.50
2022-09-06T00:17:43.793Z,3.70
2022-09-06T00:18:43.814Z,3.20
2022-09-06T00:19:43.762Z,3.60
2022-09-06T00:20:43.778Z,3.30
2022-09-06T00:21:43.758Z,3.50
2022-09-06T00:22:43.753Z,3.10
2022-09-06T00:23:43.736Z,3.40
2022-09-06T00:24:43.726Z,3.80
2022-09-06T00:25:43.684Z,3.80
2022-09-06T00:26:43.694Z,3.30
2022-09-06T00:27:43.680Z,3.20
2022-09-06T00:28:43.677Z,3.20
2022-09-06T00:29:43.638Z,3.50
2022-09-06T00:30:43.701Z,3.30
2022-09-06T00:31:43.624Z,3.20
2022-09-06T00:32:43.595Z,3.30
2022-09-06T00:33:43.617Z,3.50
2022-09-06T00:34:43.590Z,3.80
2022-09-06T00:35:43.565Z,3.40
2022-09-06T00:36:43.555Z,3.50
2022-09-06T00:37:43.545Z,3.40
2022-09-06T00:38:43.559Z,4.00
2022-09-06T00:39:43.567Z,3.80
2022-09-06T00:40:43.525Z,3.90
2022-09-06T00:41:43.476Z,4.10
2022-09-06T00:42:43.514Z,4.40
2022-09-06T00:43:43.640Z,5.10
2022-09-06T00:44:43.439Z,4.70
2022-09-06T00:45:43.424Z,4.40
2022-09-06T00:46:43.492Z,5.50
2022-09-06T00:47:43.398Z,4.10
2022-09-06T00:48:43.409Z,3.80
2022-09-06T00:49:43.398Z,4.20
2022-09-06T00:50:43.363Z,4.80
2022-09-06T00:51:43.350Z,4.20
2022-09-06T00:52:43.359Z,4.30
2022-09-06T00:53:43.336Z,3.90
2022-09-06T00:54:43.311Z,4.40
2022-09-06T00:55:43.301Z,4.40
2022-09-06T00:56:43.313Z,4.50
2022-09-06T00:57:43.279Z,4.80
2022-09-06T00:58:43.277Z,4.80
2022-09-06T00:59:43.257Z,4.60
2022-09-06T01:00:43.237Z,4.40
2022-09-06T01:01:43.327Z,4.30
2022-09-06T01:02:43.307Z,4.70
2022-09-06T01:03:43.214Z,4.60
2022-09-06T01:04:43.182Z,4.60
2022-09-06T01:05:43.166Z,4.50
2022-09-06T01:06:43.161Z,4.70
2022-09-06T01:07:43.137Z,5.10
2022-09-06T01:08:43.148Z,4.70
2022-09-06T01:09:43.117Z,4.50
2022-09-06T01:10:43.102Z,5.60
2022-09-06T01:11:43.094Z,4.90
2022-09-06T01:12:43.112Z,5.40
2022-09-06T01:13:43.088Z,5.00
2022-09-06T01:14:43.053Z,5.00
2022-09-06T01:15:43.083Z,5.00
2022-09-06T01:16:43.030Z,5.00
2022-09-06T01:17:43.008Z,5.20
2022-09-06T01:18:43.025Z,5.80
2022-09-06T01:19:43.010Z,5.90
2022-09-06T01:20:42.983Z,5.80
2022-09-06T01:21:42.954Z,5.70
2022-09-06T01:22:42.958Z,5.90
2022-09-06T01:23:42.959Z,6.00
2022-09-06T01:24:42.920Z,5.60
2022-09-06T01:25:42.908Z,6.20
2022-09-06T01:26:42.893Z,5.90
2022-09-06T01:27:42.899Z,6.60
2022-09-06T01:28:42.874Z,6.50
2022-09-06T01:29:42.847Z,6.00
2022-09-06T01:30:42.883Z,5.50
2022-09-06T01:31:42.839Z,5.90
2022-09-06T01:32:42.832Z,5.70
2022-09-06T01:33:42.803Z,5.90
2022-09-06T01:34:42.798Z,6.00
2022-09-06T01:35:42.797Z,5.90
2022-09-06T01:37:06.237Z,6.00
2022-09-06T01:37:42.774Z,6.10
2022-09-06T01:38:42.737Z,6.00
2022-09-06T01:39:42.758Z,6.20
2022-09-06T01:40:42.720Z,6.20
2022-09-06T01:41:42.715Z,6.70
2022-09-06T01:42:42.711Z,6.10
2022-09-06T01:43:42.683Z,6.80
2022-09-06T01:44:42.657Z,7.60
2022-09-06T01:45:42.715Z,7.60
2022-09-06T01:46:42.642Z,7.40
2022-09-06T01:47:42.659Z,7.60
2022-09-06T01:48:42.636Z,7.60
2022-09-06T01:49:42.612Z,7.40
2022-09-06T01:50:42.586Z,7.70
2022-09-06T01:51:42.575Z,7.40
2022-09-06T01:52:42.629Z,7.80
2022-09-06T01:53:42.541Z,7.70
2022-09-06T01:54:42.527Z,7.80
2022-09-06T01:55:42.533Z,7.70
2022-09-06T01:56:42.502Z,8.50
2022-09-06T01:57:42.511Z,8.30
2022-09-06T01:58:42.501Z,8.50
2022-09-06T01:59:42.462Z,8.60
2022-09-06T02:00:42.453Z,7.50
2022-09-06T02:01:42.489Z,7.50
2022-09-06T02:02:42.495Z,8.10
2022-09-06T02:03:42.406Z,8.20
2022-09-06T02:04:42.412Z,7.80
2022-09-06T02:05:42.382Z,8.00
2022-09-06T02:06:42.372Z,8.10
2022-09-06T02:07:42.364Z,8.20
2022-09-06T02:08:42.338Z,7.50
2022-09-06T02:09:42.336Z,7.40
2022-09-06T02:10:42.319Z,7.50
2022-09-06T02:11:42.319Z,7.30
2022-09-06T02:12:42.311Z,7.40
2022-09-06T02:13:42.273Z,7.50
2022-09-06T02:14:42.265Z,8.00
2022-09-06T02:15:42.254Z,7.70
2022-09-06T02:16:42.301Z,8.00
2022-09-06T02:17:42.241Z,7.40
2022-09-06T02:18:42.234Z,7.80
2022-09-06T02:19:42.195Z,7.50
2022-09-06T02:20:42.203Z,8.50
2022-09-06T02:21:42.177Z,7.80
2022-09-06T02:22:42.299Z,8.10
2022-09-06T02:23:42.139Z,7.90
2022-09-06T02:24:42.143Z,8.70
2022-09-06T02:25:42.169Z,8.50
2022-09-06T02:26:42.109Z,7.50
2022-09-06T02:27:42.126Z,8.60
2022-09-06T02:28:42.120Z,8.60
2022-09-06T02:29:42.084Z,9.00
2022-09-06T02:30:42.131Z,8.40
2022-09-06T02:31:42.091Z,8.50
2022-09-06T02:32:42.091Z,8.10
2022-09-06T02:33:42.012Z,8.00
2022-09-06T02:34:42.040Z,8.10
2022-09-06T02:35:41.984Z,7.80
2022-09-06T02:36:42.025Z,7.50
2022-09-06T02:37:41.973Z,7.60
2022-09-06T02:38:41.950Z,8.30
2022-09-06T02:39:41.981Z,7.50
2022-09-06T02:40:41.939Z,7.70
2022-09-06T02:41:41.939Z,7.20
2022-09-06T02:42:41.899Z,7.40
2022-09-06T02:43:41.952Z,7.60
2022-09-06T02:44:41.894Z,8.30
2022-09-06T02:45:41.910Z,7.20
2022-09-06T02:46:42.222Z,7.40
2022-09-06T02:47:41.832Z,7.60
2022-09-06T02:48:41.849Z,7.20
2022-09-06T02:49:41.809Z,7.30
2022-09-06T02:50:41.793Z,7.30
2022-09-06T02:51:41.800Z,7.50
2022-09-06T02:52:41.791Z,7.40
2022-09-06T02:53:41.750Z,7.00
2022-09-06T02:54:41.737Z,7.70
2022-09-06T02:55:41.727Z,7.50
2022-09-06T02:56:41.729Z,7.40
2022-09-06T02:57:41.697Z,9.10
2022-09-06T02:58:41.691Z,7.90
2022-09-06T02:59:41.687Z,8.10
2022-09-06T03:00:41.678Z,7.40
2022-09-06T03:01:41.772Z,7.60
2022-09-06T03:02:41.719Z,7.30
2022-09-06T03:03:41.621Z,7.90
2022-09-06T03:04:41.632Z,8.20
2022-09-06T03:05:41.591Z,8.20
2022-09-06T03:06:41.613Z,8.00
2022-09-06T03:07:41.575Z,7.80
2022-09-06T03:08:41.597Z,7.70
2022-09-06T03:09:41.538Z,8.20
2022-09-06T03:10:41.543Z,7.60
2022-09-06T03:11:41.533Z,7.80
2022-09-06T03:12:41.506Z,7.80
2022-09-06T03:13:41.501Z,8.20
2022-09-06T03:14:41.487Z,8.50
2022-09-06T03:15:41.459Z,9.10
2022-09-06T03:16:41.576Z,8.50
2022-09-06T03:17:41.433Z,9.00
2022-09-06T03:18:41.424Z,8.40
2022-09-06T03:19:41.425Z,9.10
2022-09-06T03:20:41.397Z,9.40
2022-09-06T03:21:41.393Z,8.80
2022-09-06T03:22:41.391Z,9.30
2022-09-06T03:23:41.351Z,9.00
2022-09-06T03:24:41.341Z,9.70
2022-09-06T03:25:41.327Z,10.10
2022-09-06T03:26:41.333Z,10.10
2022-09-06T03:27:41.325Z,10.30
2022-09-06T03:28:41.292Z,10.70
2022-09-06T03:29:41.288Z,10.20
2022-09-06T03:30:41.337Z,9.70
2022-09-06T03:31:41.267Z,9.80
2022-09-06T03:32:41.233Z,9.70
2022-09-06T03:33:41.237Z,9.90
2022-09-06T03:34:41.213Z,10.40
2022-09-06T03:35:41.196Z,9.80
2022-09-06T03:36:41.204Z,10.00
2022-09-06T03:37:41.173Z,9.40
2022-09-06T03:38:41.161Z,9.90
2022-09-06T03:39:41.176Z,9.30
2022-09-06T03:40:41.132Z,9.10
2022-09-06T03:41:41.145Z,9.20
2022-09-06T03:42:41.107Z,9.70
2022-09-06T03:43:41.094Z,10.10
2022-09-06T03:44:41.096Z,10.60
2022-09-06T03:45:41.154Z,10.60
2022-09-06T03:46:41.072Z,10.00
2022-09-06T03:47:41.046Z,10.30
2022-09-06T03:48:41.022Z,10.40
2022-09-06T03:49:41.022Z,10.30
2022-09-06T03:50:41.040Z,10.40
2022-09-06T03:51:41.023Z,10.70
2022-09-06T03:52:40.987Z,10.40
2022-09-06T03:53:40.962Z,10.00
2022-09-06T03:54:40.954Z,10.20
2022-09-06T03:55:40.948Z,9.90
2022-09-06T03:56:40.952Z,9.50
2022-09-06T03:57:40.913Z,10.20
2022-09-06T03:58:40.892Z,10.00
2022-09-06T03:59:40.884Z,10.20
2022-09-06T04:00:40.865Z,10.20
2022-09-06T04:01:40.920Z,10.80
2022-09-06T04:02:40.890Z,10.30
2022-09-06T04:03:40.850Z,10.10
2022-09-06T04:04:40.808Z,9.60
2022-09-06T04:05:40.809Z,9.80
2022-09-06T04:06:40.785Z,10.20
2022-09-06T04:07:40.804Z,9.70
2022-09-06T04:08:40.757Z,10.00
2022-09-06T04:09:40.751Z,10.00
2022-09-06T04:10:40.741Z,10.40
2022-09-06T04:11:43.783Z,10.60
2022-09-06T04:12:40.734Z,10.30
2022-09-06T04:13:40.696Z,10.70
2022-09-06T04:14:40.676Z,11.20
2022-09-06T04:15:40.676Z,11.20
2022-09-06T04:16:40.755Z,11.30
2022-09-06T04:17:40.666Z,11.20
2022-09-06T04:18:40.625Z,10.80
2022-09-06T04:19:40.692Z,11.10
2022-09-06T04:20:40.604Z,11.20
2022-09-06T04:21:40.593Z,10.80
2022-09-06T04:22:40.602Z,11.30
2022-09-06T04:23:40.527Z,11.10
2022-09-06T04:24:40.561Z,12.10
2022-09-06T04:25:40.539Z,11.70
2022-09-06T04:26:40.483Z,11.40
2022-09-06T04:27:40.483Z,11.50
2022-09-06T04:28:40.448Z,11.40
2022-09-06T04:29:40.489Z,11.70
2022-09-06T04:30:40.474Z,10.90
2022-09-06T04:31:40.444Z,11.40
2022-09-06T04:32:40.433Z,12.30
2022-09-06T04:33:40.386Z,11.50
2022-09-06T04:34:40.369Z,10.90
2022-09-06T04:35:40.361Z,12.10
2022-09-06T04:36:40.343Z,10.50
2022-09-06T04:37:40.432Z,10.60
2022-09-06T04:38:40.329Z,10.70
2022-09-06T04:39:40.377Z,11.30
2022-09-06T04:40:40.290Z,10.60
2022-09-06T04:41:40.283Z,11.80
2022-09-06T04:42:40.568Z,10.80
2022-09-06T04:43:40.241Z,11.20
2022-09-06T04:44:40.244Z,11.60
2022-09-06T04:45:40.284Z,10.60
2022-09-06T04:46:40.206Z,10.80
2022-09-06T04:47:40.216Z,10.40
2022-09-06T04:48:40.181Z,10.50
2022-09-06T04:49:40.182Z,11.40
2022-09-06T04:50:40.155Z,10.70
2022-09-06T04:51:40.157Z,11.90
2022-09-06T04:52:40.145Z,10.90
2022-09-06T04:53:40.138Z,11.40
2022-09-06T04:54:40.102Z,11.00
2022-09-06T04:55:40.102Z,10.90
2022-09-06T04:56:40.079Z,11.10
2022-09-06T04:57:45.038Z,10.40
2022-09-06T04:58:40.056Z,11.00
2022-09-06T04:59:40.051Z,10.50
2022-09-06T05:00:40.110Z,10.70
2022-09-06T05:01:40.019Z,10.60
2022-09-06T05:02:40.061Z,10.80
2022-09-06T05:03:39.986Z,10.60
2022-09-06T05:04:39.974Z,10.50
2022-09-06T05:05:39.983Z,10.50
2022-09-06T05:06:39.945Z,10.20
2022-09-06T05:07:39.969Z,10.30
2022-09-06T05:08:39.916Z,10.90
2022-09-06T05:09:39.928Z,11.10
2022-09-06T05:10:39.939Z,9.90
2022-09-06T05:11:39.884Z,10.30
2022-09-06T05:12:44.152Z,10.30
2022-09-06T05:13:39.863Z,10.20
2022-09-06T05:14:39.841Z,10.40
2022-09-06T05:15:39.838Z,10.00
2022-09-06T05:16:39.851Z,10.50
2022-09-06T05:17:39.821Z,9.90
2022-09-06T05:18:39.789Z,9.90
2022-09-06T05:19:39.790Z,10.20
2022-09-06T05:20:39.758Z,10.00
2022-09-06T05:21:39.757Z,10.30
2022-09-06T05:22:39.755Z,10.00
2022-09-06T05:23:39.729Z,9.80
2022-09-06T05:24:39.714Z,9.70
2022-09-06T05:25:39.695Z,9.80
2022-09-06T05:26:39.680Z,9.70
2022-09-06T05:27:39.693Z,9.20
2022-09-06T05:28:39.705Z,9.60
2022-09-06T05:29:39.649Z,9.90
2022-09-06T05:30:39.635Z,9.30
2022-09-06T05:31:39.702Z,9.40
2022-09-06T05:32:39.615Z,9.80
2022-09-06T05:33:39.586Z,9.60
2022-09-06T05:34:39.596Z,9.60
2022-09-06T05:35:39.574Z,10.10
2022-09-06T05:36:39.555Z,9.70
2022-09-06T05:37:39.557Z,9.10
2022-09-06T05:38:39.523Z,9.10
2022-09-06T05:39:39.612Z,8.90
2022-09-06T05:40:39.499Z,9.30
2022-09-06T05:41:39.487Z,9.10
2022-09-06T05:42:39.492Z,9.30
2022-09-06T05:43:39.526Z,9.00
2022-09-06T05:44:39.438Z,9.10
2022-09-06T05:45:39.494Z,9.60
2022-09-06T05:46:39.420Z,9.50
2022-09-06T05:47:39.499Z,9.60
2022-09-06T05:48:39.382Z,9.30
2022-09-06T05:49:39.381Z,9.60
2022-09-06T05:50:39.368Z,9.40
2022-09-06T05:51:39.357Z,9.50
2022-09-06T05:52:39.386Z,9.90
2022-09-06T05:53:39.333Z,10.10
2022-09-06T05:54:39.306Z,9.60
2022-09-06T05:55:42.866Z,10.50
2022-09-06T05:56:39.280Z,9.40
2022-09-06T05:57:39.298Z,9.30
2022-09-06T05:58:39.265Z,9.70
2022-09-06T05:59:39.260Z,9.10
2022-09-06T06:00:39.226Z,9.30
2022-09-06T06:01:39.281Z,9.20
2022-09-06T06:02:39.261Z,9.70
2022-09-06T06:03:39.203Z,9.50
2022-09-06T06:04:39.176Z,9.50
2022-09-06T06:05:39.175Z,9.60
2022-09-06T06:06:39.173Z,8.70
2022-09-06T06:07:39.157Z,8.90
2022-09-06T06:08:39.135Z,9.70
2022-09-06T06:09:39.124Z,8.70
2022-09-06T06:10:39.105Z,9.50
2022-09-06T06:11:39.087Z,8.90
2022-09-06T06:12:39.106Z,9.60
2022-09-06T06:13:39.068Z,8.90
2022-09-06T06:14:39.046Z,10.20
2022-09-06T06:15:39.040Z,9.50
2022-09-06T06:16:39.093Z,8.80
2022-09-06T06:17:39.040Z,9.30
2022-09-06T06:18:38.990Z,9.60
2022-09-06T06:19:38.998Z,9.10
2022-09-06T06:20:38.976Z,8.80
2022-09-06T06:21:38.965Z,9.30
2022-09-06T06:22:38.959Z,9.60
2022-09-06T06:23:38.936Z,9.50
2022-09-06T06:24:38.922Z,9.60
2022-09-06T06:25:38.906Z,10.00
2022-09-06T06:26:38.905Z,9.40
2022-09-06T06:27:38.905Z,9.90
2022-09-06T06:28:38.924Z,9.50
2022-09-06T06:29:38.928Z,9.70
2022-09-06T06:30:38.838Z,9.10
2022-09-06T06:31:38.880Z,8.80
2022-09-06T06:32:38.874Z,9.20
2022-09-06T06:33:38.810Z,9.40
2022-09-06T06:34:38.824Z,9.60
2022-09-06T06:35:40.195Z,9.70
2022-09-06T06:36:38.765Z,9.50
2022-09-06T06:37:38.752Z,10.10
2022-09-06T06:38:38.752Z,10.10
2022-09-06T06:39:38.817Z,9.60
2022-09-06T06:40:38.737Z,9.60
2022-09-06T06:41:38.713Z,10.00
2022-09-06T06:42:38.693Z,9.70
2022-09-06T06:43:38.693Z,9.60
2022-09-06T06:44:38.698Z,9.70
2022-09-06T06:45:38.732Z,10.40
2022-09-06T06:46:38.630Z,10.20
2022-09-06T06:47:38.620Z,10.30
2022-09-06T06:48:38.642Z,9.80
2022-09-06T06:49:38.599Z,9.00
2022-09-06T06:50:38.585Z,10.00
2022-09-06T06:51:38.565Z,9.20
2022-09-06T06:52:38.567Z,9.20
2022-09-06T06:53:38.544Z,8.90
2022-09-06T06:54:38.542Z,9.00
2022-09-06T06:55:38.514Z,8.50
2022-09-06T06:56:38.539Z,8.10
2022-09-06T06:57:38.525Z,7.90
2022-09-06T06:58:38.498Z,8.50
2022-09-06T06:59:38.465Z,8.30
2022-09-06T07:00:38.472Z,7.90
2022-09-06T07:01:38.553Z,7.40
2022-09-06T07:02:38.443Z,7.80
2022-09-06T07:03:38.433Z,7.90
2022-09-06T07:04:38.432Z,7.80
2022-09-06T07:07:41.025Z,7.60
2022-09-06T07:08:38.351Z,7.60
2022-09-06T07:10:38.329Z,7.40
2022-09-06T07:11:38.304Z,7.20
2022-09-06T07:12:38.388Z,7.10
2022-09-06T07:20:14.521Z,5.70
2022-09-06T07:22:02.891Z,6.30
2022-09-06T07:24:08.004Z,5.90
2022-09-06T07:24:59.027Z,5.00
2022-09-06T07:25:58.993Z,5.00
2022-09-06T07:28:00.568Z,5.20
2022-09-06T07:28:58.975Z,5.00
2022-09-06T07:29:58.949Z,5.10
2022-09-06T07:30:59.008Z,4.70
2022-09-06T07:32:14.161Z,4.80
2022-09-06T07:32:58.933Z,4.70
2022-09-06T07:33:58.898Z,4.80
2022-09-06T07:34:58.916Z,4.80
2022-09-06T07:35:58.880Z,4.60
2022-09-06T07:36:58.860Z,5.30
2022-09-06T07:37:58.915Z,4.50
2022-09-06T07:38:58.844Z,4.60
2022-09-06T07:39:58.861Z,4.10
2022-09-06T07:40:58.838Z,4.80
2022-09-06T07:41:58.804Z,4.40
2022-09-06T07:42:58.800Z,5.40
2022-09-06T07:43:58.831Z,4.40
2022-09-06T07:44:58.750Z,4.10
2022-09-06T07:45:58.745Z,4.10
2022-09-06T07:47:59.044Z,4.10
2022-09-06T07:48:58.742Z,3.60
2022-09-06T07:50:59.151Z,4.00
2022-09-06T07:51:58.786Z,3.80
2022-09-06T07:54:19.265Z,3.70
2022-09-06T07:54:58.624Z,3.90
2022-09-06T07:55:58.609Z,3.90
2022-09-06T07:56:58.619Z,4.10
2022-09-06T07:57:58.575Z,4.50
2022-09-06T07:58:58.566Z,5.60
2022-09-06T07:59:58.566Z,4.20
2022-09-06T08:00:58.613Z,3.90
2022-09-06T08:01:58.591Z,4.10
2022-09-06T08:02:59.255Z,3.90
2022-09-06T08:03:58.496Z,3.50
2022-09-06T08:04:58.502Z,3.40
2022-09-06T08:06:13.712Z,3.30
2022-09-06T08:08:59.050Z,3.70
2022-09-06T08:09:58.415Z,3.30
2022-09-06T08:10:58.406Z,3.60
2022-09-06T08:11:58.411Z,3.70
2022-09-06T08:12:58.422Z,3.70
2022-09-06T08:13:58.367Z,3.80
2022-09-06T08:14:58.366Z,3.40
2022-09-06T08:15:58.400Z,3.80
2022-09-06T08:16:58.349Z,3.80
2022-09-06T08:17:58.324Z,3.70
2022-09-06T08:18:58.304Z,3.50
2022-09-06T08:19:58.319Z,3.70
2022-09-06T08:20:58.283Z,3.30
2022-09-06T08:21:58.269Z,3.30
2022-09-06T08:22:58.262Z,3.30
2022-09-06T08:23:58.236Z,5.90
2022-09-06T08:24:58.229Z,3.50
2022-09-06T08:25:58.217Z,3.40
2022-09-06T08:26:58.250Z,3.50
2022-09-06T08:27:58.208Z,3.50
2022-09-06T08:28:58.202Z,3.60
2022-09-06T08:29:58.261Z,3.40
2022-09-06T08:30:58.162Z,3.20
2022-09-06T08:31:58.213Z,3.10
2022-09-06T08:32:58.131Z,3.40
2022-09-06T08:33:58.115Z,3.30
2022-09-06T08:34:58.121Z,3.80
2022-09-06T08:35:58.069Z,3.10
2022-09-06T08:36:58.081Z,3.40
2022-09-06T08:37:58.052Z,2.90
2022-09-06T08:38:58.042Z,3.10
2022-09-06T08:39:58.146Z,3.70
2022-09-06T08:40:58.008Z,3.10
2022-09-06T08:41:58.053Z,3.30
2022-09-06T08:42:57.982Z,3.00
2022-09-06T08:44:58.550Z,3.10
2022-09-06T08:45:57.957Z,2.80
2022-09-06T08:46:58.063Z,3.20
2022-09-06T08:47:57.912Z,3.10
2022-09-06T08:48:57.919Z,2.80
2022-09-06T08:49:57.885Z,3.20
2022-09-06T08:50:57.889Z,3.00
2022-09-06T08:51:57.965Z,2.90
2022-09-06T08:53:57.845Z,2.90
2022-09-06T08:54:57.850Z,3.00
2022-09-06T08:55:57.807Z,2.80
2022-09-06T08:56:57.817Z,3.10
2022-09-06T08:57:57.786Z,3.00
2022-09-06T08:58:57.771Z,3.20
2022-09-06T08:59:57.803Z,2.70
2022-09-06T09:00:57.874Z,2.80
2022-09-06T09:01:57.793Z,2.70
2022-09-06T09:02:57.725Z,2.80
2022-09-06T09:03:57.712Z,2.70
2022-09-06T09:04:57.697Z,2.60
2022-09-06T09:05:57.678Z,2.70
2022-09-06T09:06:57.697Z,2.70
2022-09-06T09:07:57.701Z,2.60
2022-09-06T09:08:57.647Z,2.70
2022-09-06T09:09:57.634Z,2.90
2022-09-06T09:10:57.618Z,2.70
2022-09-06T09:11:57.617Z,3.00
2022-09-06T09:12:57.591Z,2.70
2022-09-06T09:13:57.608Z,2.80
2022-09-06T09:14:57.585Z,2.90
2022-09-06T09:15:57.592Z,2.80
2022-09-06T09:16:57.582Z,2.80
2022-09-06T09:17:57.533Z,2.40
2022-09-06T09:18:57.537Z,2.90
2022-09-06T09:19:57.508Z,2.50
2022-09-06T09:20:57.508Z,2.90
2022-09-06T09:21:57.553Z,2.50
2022-09-06T09:22:57.492Z,2.60
2022-09-06T09:23:57.450Z,2.90
2022-09-06T09:24:57.446Z,2.80
2022-09-06T09:25:57.429Z,2.80
2022-09-06T09:26:57.445Z,2.60
2022-09-06T09:27:57.408Z,2.60
2022-09-06T09:28:57.413Z,2.40
2022-09-06T09:30:57.478Z,2.60
2022-09-06T09:31:57.418Z,2.70
2022-09-06T09:32:57.357Z,2.60
2022-09-06T09:33:57.337Z,2.90
2022-09-06T09:34:57.335Z,3.10
2022-09-06T09:35:57.309Z,2.70
2022-09-06T09:37:57.453Z,2.70
2022-09-06T09:38:57.282Z,2.70
2022-09-06T09:39:57.368Z,3.10
2022-09-06T09:40:57.289Z,3.10
2022-09-06T09:41:57.270Z,3.30
2022-09-06T09:42:57.267Z,2.90
2022-09-06T09:44:01.087Z,2.80
2022-09-06T09:44:57.217Z,2.90
2022-09-06T09:45:57.177Z,2.60
2022-09-06T09:46:57.246Z,2.50
2022-09-06T09:47:57.172Z,2.60
2022-09-06T09:48:57.240Z,2.60
2022-09-06T09:49:57.235Z,2.70
2022-09-06T09:50:57.133Z,2.50
2022-09-06T09:51:57.131Z,3.40
2022-09-06T09:52:57.115Z,3.10
2022-09-06T09:53:57.169Z,3.70
2022-09-06T09:54:57.071Z,3.20
2022-09-06T09:55:57.102Z,2.80
2022-09-06T09:56:57.071Z,2.90
2022-09-06T09:57:57.035Z,3.30
2022-09-06T09:58:57.023Z,2.50
2022-09-06T09:59:57.019Z,3.20
2022-09-06T10:00:57.013Z,3.00
2022-09-06T10:01:57.014Z,2.80
2022-09-06T10:02:57.015Z,3.30
2022-09-06T10:04:56.955Z,2.70
2022-09-06T10:06:02.260Z,3.00
2022-09-06T10:07:12.333Z,3.10
2022-09-06T10:07:56.917Z,3.00
2022-09-06T10:08:56.908Z,2.80
2022-09-06T10:09:56.894Z,2.80
2022-09-06T10:10:56.877Z,2.90
2022-09-06T10:11:56.878Z,3.10
2022-09-06T10:12:56.866Z,3.00
2022-09-06T10:13:56.857Z,3.00
2022-09-06T10:14:56.861Z,2.50
2022-09-06T10:15:56.875Z,2.60
2022-09-06T10:16:56.822Z,2.50
2022-09-06T10:17:56.807Z,2.70
2022-09-06T10:18:56.794Z,2.70
2022-09-06T10:19:56.778Z,2.60
2022-09-06T10:20:56.756Z,2.80
2022-09-06T10:21:56.799Z,2.80
2022-09-06T10:22:56.877Z,2.50
2022-09-06T10:24:56.750Z,2.60
2022-09-06T10:25:56.702Z,2.60
2022-09-06T10:26:56.721Z,2.80
2022-09-06T10:28:12.195Z,3.20
2022-09-06T10:28:56.687Z,3.00
2022-09-06T10:29:56.657Z,3.00
2022-09-06T10:30:56.732Z,3.10
2022-09-06T10:31:56.644Z,2.50
2022-09-06T10:32:56.620Z,2.90
2022-09-06T10:33:56.608Z,2.70
2022-09-06T10:34:56.606Z,2.70
2022-09-06T10:35:56.599Z,2.80
2022-09-06T10:36:56.592Z,10.00
2022-09-06T10:37:56.601Z,2.70
2022-09-06T10:39:00.355Z,2.80
2022-09-06T10:39:56.739Z,2.80
2022-09-06T10:40:56.531Z,2.70
2022-09-06T10:41:56.520Z,2.60
2022-09-06T10:42:56.515Z,2.80
2022-09-06T10:43:56.501Z,2.60
2022-09-06T10:44:56.480Z,2.40
2022-09-06T10:45:56.480Z,2.30
2022-09-06T10:46:56.608Z,2.40
2022-09-06T10:47:56.458Z,2.60
2022-09-06T10:48:56.440Z,2.40
2022-09-06T10:49:56.423Z,2.50
2022-09-06T10:50:56.412Z,2.50
2022-09-06T10:51:56.430Z,2.40
2022-09-06T10:52:56.384Z,2.60
2022-09-06T10:53:56.375Z,2.50
2022-09-06T10:54:56.360Z,2.60
2022-09-06T10:55:59.784Z,2.60
2022-09-06T10:56:56.358Z,2.70
2022-09-06T10:59:56.311Z,2.80
2022-09-06T11:00:56.285Z,3.30
2022-09-06T11:01:56.450Z,2.60
2022-09-06T11:04:00.081Z,2.70
2022-09-06T11:05:56.384Z,2.70
2022-09-06T11:06:56.324Z,2.70
2022-09-06T11:08:58.277Z,2.50
2022-09-06T11:09:56.181Z,2.60
2022-09-06T11:10:56.188Z,3.00
2022-09-06T11:11:56.149Z,3.00
2022-09-06T11:12:56.229Z,2.70
2022-09-06T11:13:56.130Z,3.10
2022-09-06T11:14:56.127Z,3.10
2022-09-06T11:15:56.215Z,2.90
2022-09-06T11:16:56.097Z,2.80
2022-09-06T11:17:56.117Z,4.10
2022-09-06T11:18:56.077Z,2.70
2022-09-06T11:19:56.051Z,2.50
2022-09-06T11:20:56.060Z,2.50
2022-09-06T11:21:56.025Z,2.60
2022-09-06T11:22:56.015Z,2.50
2022-09-06T11:23:56.028Z,2.70
2022-09-06T11:24:56.006Z,2.60
2022-09-06T11:25:55.975Z,2.50
2022-09-06T11:26:55.985Z,3.00
2022-09-06T11:27:58.061Z,2.70
2022-09-06T11:28:55.944Z,2.70
2022-09-06T11:29:55.957Z,2.50
2022-09-06T11:30:56.033Z,2.30
2022-09-06T11:32:55.898Z,2.60
2022-09-06T11:34:00.709Z,2.40
2022-09-06T11:34:55.886Z,2.50
2022-09-06T11:35:55.888Z,2.50
2022-09-06T11:36:55.923Z,2.70
2022-09-06T11:37:55.893Z,2.60
2022-09-06T11:38:55.821Z,2.40
2022-09-06T11:40:55.872Z,2.60
2022-09-06T11:41:55.793Z,2.40
2022-09-06T11:42:55.792Z,2.70
2022-09-06T11:43:55.774Z,2.50
2022-09-06T11:44:55.757Z,2.70
2022-09-06T11:45:55.878Z,2.70
2022-09-06T11:46:55.784Z,2.60
2022-09-06T11:47:55.728Z,2.80
2022-09-06T11:48:55.707Z,2.60
2022-09-06T11:49:55.701Z,2.60
2022-09-06T11:50:55.720Z,2.50
2022-09-06T11:51:55.792Z,2.50
2022-09-06T11:52:55.671Z,2.60
2022-09-06T11:53:55.644Z,2.60
2022-09-06T11:54:55.672Z,2.60
2022-09-06T11:55:55.643Z,2.50
2022-09-06T11:56:55.612Z,2.80
2022-09-06T11:57:55.607Z,2.50
2022-09-06T11:58:55.585Z,2.50
2022-09-06T11:59:55.575Z,2.80
2022-09-06T12:00:55.580Z,2.40
2022-09-06T12:01:55.550Z,2.60
2022-09-06T12:04:06.780Z,2.60
2022-09-06T12:04:58.328Z,2.70
2022-09-06T12:05:55.531Z,2.60
2022-09-06T12:06:55.523Z,5.50
2022-09-06T12:07:55.481Z,4.50
2022-09-06T12:08:55.469Z,3.50
2022-09-06T12:09:55.456Z,2.80
2022-09-06T12:10:55.459Z,2.80
2022-09-06T12:11:55.433Z,2.70
2022-09-06T12:12:55.420Z,2.80
2022-09-06T12:13:55.433Z,2.60
2022-09-06T12:14:55.416Z,2.60
2022-09-06T12:15:55.446Z,2.70
2022-09-06T12:16:55.370Z,2.60
2022-09-06T12:17:55.374Z,2.60
2022-09-06T12:18:55.386Z,2.60
2022-09-06T12:19:55.351Z,2.70
2022-09-06T12:20:55.327Z,2.70
2022-09-06T12:21:55.311Z,2.60
2022-09-06T12:22:55.309Z,3.10
2022-09-06T12:23:55.296Z,2.60
2022-09-06T12:24:55.288Z,3.80
2022-09-06T12:25:55.266Z,2.90
2022-09-06T12:26:56.042Z,3.00
2022-09-06T12:27:55.246Z,3.10
2022-09-06T12:28:55.236Z,3.00
2022-09-06T12:29:55.229Z,2.90
2022-09-06T12:30:55.240Z,3.00
2022-09-06T12:31:55.224Z,2.70
2022-09-06T12:32:55.273Z,2.90
2022-09-06T12:33:55.171Z,3.00
2022-09-06T12:36:55.124Z,3.00
2022-09-06T12:37:55.131Z,3.00
2022-09-06T12:38:55.116Z,3.40
2022-09-06T12:39:55.223Z,2.80
2022-09-06T12:40:55.092Z,2.80
2022-09-06T12:41:55.100Z,3.00
2022-09-06T12:42:55.143Z,2.80
2022-09-06T12:43:55.045Z,2.80
2022-09-06T12:44:55.024Z,3.10
2022-09-06T12:45:55.028Z,3.00
2022-09-06T12:46:55.038Z,3.20
2022-09-06T12:47:55.009Z,2.80
2022-09-06T12:48:54.974Z,2.90
2022-09-06T12:49:55.003Z,3.00
2022-09-06T12:50:55.013Z,2.80
2022-09-06T12:51:54.993Z,2.50
2022-09-06T12:52:54.970Z,2.70
2022-09-06T12:53:54.984Z,3.00
2022-09-06T12:54:54.908Z,2.70
2022-09-06T12:55:54.918Z,2.80
2022-09-06T12:56:54.880Z,2.80
2022-09-06T12:57:54.867Z,2.80
2022-09-06T12:58:54.896Z,3.10
2022-09-06T12:59:54.906Z,2.70
2022-09-06T13:00:54.955Z,2.70
2022-09-06T13:01:54.954Z,3.10
2022-09-06T13:02:54.867Z,3.00
2022-09-06T13:03:54.800Z,3.00
2022-09-06T13:04:54.820Z,2.70
2022-09-06T13:05:54.786Z,3.70
2022-09-06T13:06:54.758Z,3.20
2022-09-06T13:07:54.745Z,3.40
2022-09-06T13:08:54.734Z,2.60
2022-09-06T13:09:54.710Z,2.70
2022-09-06T13:10:54.872Z,2.40
2022-09-06T13:11:54.708Z,2.40
2022-09-06T13:12:54.807Z,3.90
2022-09-06T13:13:54.667Z,2.90
2022-09-06T13:14:54.649Z,2.70
2022-09-06T13:15:54.702Z,3.00
2022-09-06T13:16:54.631Z,2.70
2022-09-06T13:17:54.621Z,2.70
2022-09-06T13:18:54.662Z,2.50
2022-09-06T13:19:54.730Z,2.90
2022-09-06T13:20:54.752Z,2.70
2022-09-06T13:21:54.560Z,2.80
2022-09-06T13:22:54.670Z,2.80
2022-09-06T13:23:54.625Z,2.70
2022-09-06T13:24:54.649Z,2.60
2022-09-06T13:25:54.641Z,2.40
2022-09-06T13:26:54.496Z,2.30
2022-09-06T13:27:54.626Z,2.70
2022-09-06T13:28:54.477Z,2.60
2022-09-06T13:29:54.450Z,2.40
2022-09-06T13:30:54.479Z,2.30
2022-09-06T13:31:54.448Z,2.50
2022-09-06T13:32:54.422Z,2.40
2022-09-06T13:33:54.540Z,2.30
2022-09-06T13:34:54.530Z,2.30
2022-09-06T13:35:54.549Z,2.20
2022-09-06T13:36:55.282Z,2.10
2022-09-06T13:37:54.489Z,2.20
2022-09-06T13:38:54.461Z,2.40
2022-09-06T13:39:54.541Z,2.50
2022-09-06T13:41:11.606Z,2.40
2022-09-06T13:41:54.492Z,2.20
2022-09-06T13:42:54.471Z,2.20
2022-09-06T13:43:54.272Z,2.40
2022-09-06T13:44:56.737Z,2.20
2022-09-06T13:45:54.431Z,2.20
2022-09-06T13:46:54.308Z,2.20
2022-09-06T13:48:03.441Z,2.50